Terminal Aerodrome Forecast
Issued by NWS Boise, ID

Home | Current Version | Previous Version | Text Only | Print | Product List | Glossary On
Versions: 1 2 3 4 5 6 7 8 9 10 11 12 13 14 15 16 17 18 19 20 21 22 23 24 25 26 27 28 29 30 31 32 33
915
FTUS45 KBOI 231732
TAFBOI
TAF
KBOI 231732Z 2318/2418 31015G25KT P6SM SKC
     FM240300 VRB06KT P6SM SCT200
     FM240900 13010KT P6SM BKN120
     FM241500 13015KT P6SM VCSH BKN080=

USA.gov is the U.S. government's official web portal to all federal, state and local government web resources and services.